This is the latest recevied weather packets stored in our database for station/object SQ7IQO. If no packets are shown the sender has not sent any weather packets the latest 10 day(s).
| Time | Temp. | Humidity | Pressure | Rain* | Wind** | Luminosity | Snow |
|---|---|---|---|---|---|---|---|
| 1788004241 | 22.22° C | 72% | 1014.9 hPa | 0 mm | 1.34 m/s, ° | - | - |
| 1788004181 | 22.78° C | 69% | 1014.9 hPa | 0 mm | 0.89 m/s, ° | - | - |
| 1788004121 | 22.78° C | 69% | 1015 hPa | 0 mm | 0.45 m/s, ° | - | - |
| 1788004061 | 22.78° C | 71% | 1015 hPa | 0 mm | 0.45 m/s, ° | - | - |
| 1788004001 | 22.22° C | 70% | 1015 hPa | 0 mm | 0.89 m/s, ° | - | - |
| 1788003941 | 22.22° C | 71% | 1015.1 hPa | 0 mm | 1.34 m/s, ° | - | - |
| 1788003881 | 22.22° C | 71% | 1015 hPa | 0 mm | 1.34 m/s, ° | - | - |
| 1788003821 | 21.67° C | 72% | 1015.1 hPa | 0 mm | 0.89 m/s, ° | - | - |
| 1788003761 | 21.67° C | 73% | - | 0 mm | 0.89 m/s, ° | - | - |
| 1788003701 | 20.56° C | 76% | 1013.7 hPa | 0 mm | 0.89 m/s, ° | - | - |
| 1788003641 | 20.56° C | 75% | 1015.1 hPa | 0 mm | 0.89 m/s, ° | - | - |
| 1788003581 | 20.56° C | 75% | 1015.1 hPa | 0 mm | 0.89 m/s, ° | - | - |
| 1788003521 | 20.56° C | 75% | 1015.1 hPa | 0 mm | 1.34 m/s, ° | - | - |
| 1788003461 | 20.56° C | 75% | 1015.2 hPa | 0 mm | 0.89 m/s, ° | - | - |
| 1788003401 | 20.56° C | 75% | 1016.9 hPa | 0 mm | 0.45 m/s, ° | - | - |
| 1788003341 | 20.56° C | 75% | 1015.1 hPa | 0 mm | 0.89 m/s, ° | - | - |
| 1788003281 | 20.56° C | 74% | 1015.1 hPa | 0 mm | 0.89 m/s, ° | - | - |
| 1788003221 | 21.11° C | 73% | 1474.7 hPa | 0 mm | 0.89 m/s, ° | - | - |
| 1788003161 | 21.11° C | 72% | 1015.1 hPa | 0 mm | 1.34 m/s, ° | - | - |
| 1788003101 | 21.67° C | 72% | 1015.2 hPa | 0 mm | 0.89 m/s, ° | - | - |
| 1788003041 | 21.67° C | 71% | 1008.4 hPa | 0 mm | 1.34 m/s, ° | - | - |
| 1788002981 | 21.67° C | 70% | 1015.2 hPa | 0 mm | 0.89 m/s, ° | - | - |
| 1788002921 | 22.22° C | 69% | 1015.1 hPa | 0 mm | 1.34 m/s, ° | - | - |
| 1788002861 | 22.78° C | 70% | 1015.2 hPa | 0 mm | 1.34 m/s, ° | - | - |
| 1788002801 | 22.78° C | 69% | 1012.1 hPa | 0 mm | 0.45 m/s, ° | - | - |
* Rain latest hour (hover to see other rain measurements)
** Current wind speed in m/s (hover to see current wind gust speed)